Philadelphia, Mississippi
Current Conditions -  °F | °C
As of 9:56 PM on Sunday 23 Nov 2014 (Local Time) from KNMM Reporting Station
Clear Clear  
Wind Chill: 63°   Ceiling: Unl
Heat Index: 63°   Visibility: 10mi
Dew Point: 58°   Wind: 10mph
Humidity: 84%   Direction: 190°S
Pressure: 29.64"   Gusts: NA
Location:  32.77°N, 89.12°W
Report Text: KNMM 240356Z AUTO 19009KT 150V220 10SM CLR 17/14 A2964 RMK AO2 SLP046 T01720144 $
Loading
Personal Weather Stations






























Interactive Weather Map New forecast layout! Learn more

10-Day Weather Forecast

Advertisements
Track Severe Weather on mobile